createdAt,value
2023-01-18T00:00:47.728Z,-2.57
2023-01-18T00:03:14.783Z,-2.75
2023-01-18T00:05:42.519Z,-2.60
2023-01-18T00:08:09.114Z,-2.50
2023-01-18T00:10:35.643Z,-2.69
2023-01-18T00:13:02.610Z,-2.67
2023-01-18T00:15:29.173Z,-2.73
2023-01-18T00:17:56.246Z,-2.82
2023-01-18T00:20:25.684Z,-2.88
2023-01-18T00:22:52.935Z,-2.80
2023-01-18T00:25:22.065Z,-2.56
2023-01-18T00:27:53.940Z,-2.83
2023-01-18T00:30:23.819Z,-2.57
2023-01-18T00:32:55.611Z,-2.63
2023-01-18T00:35:22.892Z,-2.58
2023-01-18T00:37:51.992Z,-3.08
2023-01-18T00:40:22.308Z,-2.79
2023-01-18T00:43:08.090Z,-2.59
2023-01-18T00:45:34.772Z,-2.60
2023-01-18T00:48:02.896Z,-2.60
2023-01-18T00:50:30.179Z,-2.65
2023-01-18T00:53:00.458Z,-2.73
2023-01-18T00:55:27.949Z,-2.90
2023-01-18T00:57:54.606Z,-2.83
2023-01-18T01:00:26.876Z,-2.81
2023-01-18T01:02:54.261Z,-2.79
2023-01-18T01:05:42.055Z,-2.79
2023-01-18T01:08:12.864Z,-2.86
2023-01-18T01:10:39.520Z,-2.92
2023-01-18T01:13:24.748Z,-2.97
2023-01-18T01:16:09.905Z,-2.79
2023-01-18T01:18:55.317Z,-2.97
2023-01-18T01:21:40.535Z,-2.98
2023-01-18T01:24:25.866Z,-2.94
2023-01-18T01:26:52.367Z,-3.03
2023-01-18T01:29:19.009Z,-3.04
2023-01-18T01:31:45.594Z,-3.07
2023-01-18T01:34:12.231Z,-3.15
2023-01-18T01:36:38.857Z,-3.08
2023-01-18T01:39:07.142Z,-2.97
2023-01-18T01:41:35.513Z,-3.24
2023-01-18T01:44:28.261Z,-3.34
2023-01-18T01:47:14.477Z,-3.16
2023-01-18T01:49:50.702Z,-3.27
2023-01-18T01:52:23.908Z,-3.11
2023-01-18T01:54:58.148Z,-3.11
2023-01-18T01:57:37.448Z,-3.14
2023-01-18T02:00:08.883Z,-3.04
2023-01-18T02:02:36.394Z,-3.21
2023-01-18T02:05:07.990Z,-3.20
2023-01-18T02:07:34.915Z,-3.16
2023-01-18T02:10:04.431Z,-3.22
2023-01-18T02:12:31.577Z,-3.33
2023-01-18T02:14:59.482Z,-3.23
2023-01-18T02:17:37.308Z,-3.31
2023-01-18T02:20:24.314Z,-3.11
2023-01-18T02:23:23.426Z,-3.11
2023-01-18T02:26:02.117Z,-3.10
2023-01-18T02:28:38.058Z,-3.18
2023-01-18T02:31:19.483Z,-3.40
2023-01-18T02:34:13.815Z,-3.07
2023-01-18T02:36:49.626Z,-3.03
2023-01-18T02:39:39.233Z,-3.04
2023-01-18T02:42:34.055Z,-3.17
2023-01-18T02:45:23.622Z,-3.27
2023-01-18T02:47:51.731Z,-3.02
2023-01-18T02:50:24.072Z,-3.04
2023-01-18T02:52:52.014Z,-3.35
2023-01-18T02:55:34.711Z,-3.08
2023-01-18T02:58:15.623Z,-3.20
2023-01-18T03:00:49.712Z,-3.16
2023-01-18T03:03:19.070Z,-3.33
2023-01-18T03:05:48.319Z,-3.08
2023-01-18T03:08:28.590Z,-3.23
2023-01-18T03:11:02.245Z,-3.01
2023-01-18T03:13:40.863Z,-3.09
2023-01-18T03:16:21.142Z,-3.15
2023-01-18T03:19:01.472Z,-2.99
2023-01-18T03:21:40.912Z,-3.00
2023-01-18T03:24:09.810Z,-3.18
2023-01-18T03:26:42.101Z,-2.97
2023-01-18T03:29:29.163Z,-3.16
2023-01-18T03:32:32.236Z,-3.10
2023-01-18T03:35:08.291Z,-3.11
2023-01-18T03:37:38.807Z,-2.99
2023-01-18T03:40:13.981Z,-3.06
2023-01-18T03:42:48.693Z,-3.15
2023-01-18T03:45:32.865Z,-2.92
2023-01-18T03:48:01.376Z,-3.06
2023-01-18T03:50:51.923Z,-2.89
2023-01-18T03:53:33.386Z,-3.01
2023-01-18T03:56:07.094Z,-3.00
2023-01-18T03:58:36.862Z,-3.06
2023-01-18T04:01:04.638Z,-3.13
2023-01-18T04:03:33.199Z,-3.12
2023-01-18T04:06:02.515Z,-3.18
2023-01-18T04:08:29.174Z,-3.15
2023-01-18T04:10:55.852Z,-3.01
2023-01-18T04:13:22.418Z,-3.08
2023-01-18T04:15:49.420Z,-2.83
2023-01-18T04:18:16.317Z,-2.90
2023-01-18T04:20:42.869Z,-2.95
2023-01-18T04:23:09.504Z,-2.93
2023-01-18T04:25:35.993Z,-2.71
2023-01-18T04:28:02.617Z,-2.94
2023-01-18T04:30:29.210Z,-3.00
2023-01-18T04:32:55.988Z,-2.67
2023-01-18T04:35:22.663Z,-2.88
2023-01-18T04:37:55.070Z,-2.62
2023-01-18T04:40:21.766Z,-2.70
2023-01-18T04:42:53.233Z,-2.66
2023-01-18T04:45:20.432Z,-2.57
2023-01-18T04:47:47.024Z,-2.42
2023-01-18T04:50:13.595Z,-2.56
2023-01-18T04:52:40.404Z,-2.47
2023-01-18T04:55:07.850Z,-2.27
2023-01-18T04:57:38.299Z,-2.36
2023-01-18T05:00:07.242Z,-2.35
2023-01-18T05:02:35.297Z,-2.54
2023-01-18T05:05:02.031Z,-2.33
2023-01-18T05:07:30.695Z,-2.36
2023-01-18T05:09:57.368Z,-2.27
2023-01-18T05:12:23.924Z,-2.19
2023-01-18T05:14:50.502Z,-2.25
2023-01-18T05:17:17.164Z,-2.21
2023-01-18T05:19:43.887Z,-2.44
2023-01-18T05:22:10.494Z,-2.27
2023-01-18T05:24:37.218Z,-2.37
2023-01-18T05:27:03.968Z,-2.45
2023-01-18T05:29:30.556Z,-2.44
2023-01-18T05:31:57.151Z,-2.55
2023-01-18T05:34:24.062Z,-2.57
2023-01-18T05:36:50.683Z,-2.61
2023-01-18T05:39:17.280Z,-2.59
2023-01-18T05:41:43.927Z,-2.56
2023-01-18T05:44:12.563Z,-2.71
2023-01-18T05:46:39.302Z,-2.70
2023-01-18T05:49:05.908Z,-2.58
2023-01-18T05:51:32.776Z,-2.59
2023-01-18T05:53:59.292Z,-2.49
2023-01-18T05:56:25.812Z,-2.66
2023-01-18T05:58:52.473Z,-2.61
2023-01-18T06:05:10.210Z,-2.79
2023-01-18T06:07:38.816Z,-2.84
2023-01-18T06:10:05.879Z,-2.79
2023-01-18T06:12:32.680Z,-3.00
2023-01-18T06:14:59.664Z,-2.81
2023-01-18T06:17:27.850Z,-2.93
2023-01-18T06:19:54.355Z,-2.88
2023-01-18T06:22:20.999Z,-3.02
2023-01-18T06:24:47.575Z,-2.82
2023-01-18T06:27:14.337Z,-3.03
2023-01-18T06:29:40.926Z,-2.98
2023-01-18T06:32:08.621Z,-3.04
2023-01-18T06:34:36.912Z,-3.14
2023-01-18T06:37:04.132Z,-3.03
2023-01-18T06:39:31.100Z,-2.94
2023-01-18T06:41:57.762Z,-2.99
2023-01-18T06:44:24.555Z,-3.20
2023-01-18T06:46:51.441Z,-3.05
2023-01-18T06:49:18.211Z,-3.18
2023-01-18T06:51:45.121Z,-3.01
2023-01-18T06:54:12.212Z,-2.98
2023-01-18T06:56:39.810Z,-3.11
2023-01-18T06:59:08.466Z,-2.88
2023-01-18T07:01:35.205Z,-2.99
2023-01-18T07:04:01.884Z,-2.80
2023-01-18T07:06:28.532Z,-2.96
2023-01-18T07:08:55.295Z,-2.92
2023-01-18T07:11:22.019Z,-2.98
2023-01-18T07:13:49.608Z,-2.84
2023-01-18T07:16:21.058Z,-2.92
2023-01-18T07:18:49.288Z,-2.81
2023-01-18T07:21:17.505Z,-3.01
2023-01-18T07:23:44.330Z,-2.81
2023-01-18T07:26:16.922Z,-3.22
2023-01-18T07:28:46.081Z,-2.78
2023-01-18T07:31:13.608Z,-2.99
2023-01-18T07:33:40.365Z,-2.76
2023-01-18T07:36:07.603Z,-2.86
2023-01-18T07:38:34.291Z,-3.19
2023-01-18T07:41:13.549Z,-2.82
2023-01-18T07:43:41.323Z,-2.56
2023-01-18T07:46:13.335Z,-2.73
2023-01-18T07:48:42.196Z,-2.92
2023-01-18T07:51:10.936Z,-2.81
2023-01-18T07:53:47.512Z,-2.71
2023-01-18T07:56:16.639Z,-2.83
2023-01-18T07:58:44.295Z,-2.55
2023-01-18T08:01:18.596Z,-2.85
2023-01-18T08:03:48.164Z,-2.59
2023-01-18T08:06:18.501Z,-2.50
2023-01-18T08:08:45.403Z,-2.76
2023-01-18T08:11:14.010Z,-2.60
2023-01-18T08:13:52.739Z,-2.60
2023-01-18T08:16:19.968Z,-2.75
2023-01-18T08:18:50.594Z,-2.93
2023-01-18T08:21:19.967Z,-2.98
2023-01-18T08:23:47.043Z,-2.56
2023-01-18T08:26:15.165Z,-2.40
2023-01-18T08:28:45.112Z,-2.68
2023-01-18T08:31:17.469Z,-2.56
2023-01-18T08:33:47.801Z,-2.29
2023-01-18T08:36:20.325Z,-2.66
2023-01-18T08:39:17.052Z,-2.39
2023-01-18T08:41:44.040Z,-2.51
2023-01-18T08:44:14.359Z,-2.24
2023-01-18T08:46:41.566Z,-2.60
2023-01-18T08:49:11.872Z,-2.36
2023-01-18T08:52:06.965Z,-2.42
2023-01-18T08:54:41.897Z,-2.47
2023-01-18T08:57:13.584Z,-2.43
2023-01-18T08:59:47.398Z,-2.08
2023-01-18T09:02:29.474Z,-2.21
2023-01-18T09:04:56.520Z,-1.97
2023-01-18T09:07:23.431Z,-1.90
2023-01-18T09:09:50.040Z,-1.83
2023-01-18T09:12:16.631Z,-1.80
2023-01-18T09:14:44.792Z,-1.61
2023-01-18T09:17:21.247Z,-1.56
2023-01-18T09:19:47.942Z,-1.55
2023-01-18T09:22:14.649Z,-1.45
2023-01-18T09:24:42.758Z,-1.39
2023-01-18T09:27:09.531Z,-1.16
2023-01-18T09:29:36.163Z,-1.31
2023-01-18T09:32:02.824Z,-1.24
2023-01-18T09:34:29.332Z,-1.08
2023-01-18T09:36:55.885Z,-0.88
2023-01-18T09:39:22.933Z,-0.78
2023-01-18T09:41:54.907Z,-0.73
2023-01-18T09:44:24.689Z,-0.80
2023-01-18T09:46:55.401Z,-0.68
2023-01-18T09:49:28.935Z,-0.67
2023-01-18T09:52:12.299Z,-0.52
2023-01-18T09:54:56.269Z,-0.46
2023-01-18T09:57:55.393Z,-0.21
2023-01-18T10:00:25.869Z,-0.19
2023-01-18T10:03:01.364Z,-0.25
2023-01-18T10:05:33.464Z,-0.20
2023-01-18T10:08:08.007Z,-0.24
2023-01-18T10:11:01.724Z,-0.04
2023-01-18T10:13:47.781Z,0.03
2023-01-18T10:16:15.041Z,-0.12
2023-01-18T10:18:48.413Z,0.19
2023-01-18T10:21:25.710Z,0.37
2023-01-18T10:24:24.354Z,0.18
2023-01-18T10:26:58.618Z,0.42
2023-01-18T10:29:39.918Z,0.69
2023-01-18T10:32:14.379Z,0.78
2023-01-18T10:34:52.140Z,0.92
2023-01-18T10:37:21.708Z,1.02
2023-01-18T10:39:53.056Z,1.18
2023-01-18T10:42:23.552Z,1.30
2023-01-18T10:44:52.454Z,1.38
2023-01-18T10:47:20.741Z,1.21
2023-01-18T10:49:50.556Z,1.81
2023-01-18T10:52:35.533Z,1.77
2023-01-18T10:55:17.398Z,1.97
2023-01-18T10:57:48.321Z,2.04
2023-01-18T11:00:34.843Z,2.13
2023-01-18T11:03:04.007Z,2.24
2023-01-18T11:05:40.102Z,2.51
2023-01-18T11:08:12.400Z,2.54
2023-01-18T11:10:41.497Z,2.68
2023-01-18T11:13:32.043Z,2.74
2023-01-18T11:16:14.224Z,3.26
2023-01-18T11:19:04.471Z,3.47
2023-01-18T11:21:43.025Z,3.51
2023-01-18T11:24:18.854Z,3.61
2023-01-18T11:26:51.445Z,3.95
2023-01-18T11:29:18.800Z,3.89
2023-01-18T11:31:47.727Z,4.06
2023-01-18T11:34:33.218Z,4.27
2023-01-18T11:37:01.055Z,4.28
2023-01-18T11:39:36.293Z,4.50
2023-01-18T11:42:11.903Z,4.59
2023-01-18T11:44:44.827Z,4.37
2023-01-18T11:47:21.658Z,4.55
2023-01-18T11:50:13.450Z,4.72
2023-01-18T11:53:30.923Z,4.76
2023-01-18T11:56:06.112Z,4.53
2023-01-18T11:58:35.802Z,4.88
2023-01-18T12:01:22.663Z,4.94
2023-01-18T12:04:17.212Z,4.98
2023-01-18T12:06:55.843Z,5.04
2023-01-18T12:09:34.417Z,4.97
2023-01-18T12:12:18.953Z,5.18
2023-01-18T12:14:56.140Z,4.98
2023-01-18T12:17:36.872Z,5.37
2023-01-18T12:20:25.152Z,5.53
2023-01-18T12:23:15.068Z,5.57
2023-01-18T12:26:14.708Z,5.68
2023-01-18T12:28:55.540Z,5.64
2023-01-18T12:31:43.151Z,5.90
2023-01-18T12:34:16.282Z,5.77
2023-01-18T12:36:46.138Z,6.00
2023-01-18T12:39:20.783Z,6.09
2023-01-18T12:42:20.203Z,5.94
2023-01-18T12:45:25.154Z,6.28
2023-01-18T12:48:24.792Z,6.42
2023-01-18T12:50:51.647Z,6.12
2023-01-18T12:53:36.294Z,6.35
2023-01-18T12:56:11.483Z,6.39
2023-01-18T12:58:38.216Z,6.22
2023-01-18T13:01:07.981Z,6.48
2023-01-18T13:03:47.201Z,6.27
2023-01-18T13:06:17.083Z,6.41
2023-01-18T13:09:01.314Z,6.46
2023-01-18T13:11:32.612Z,6.14
2023-01-18T13:14:17.861Z,6.42
2023-01-18T13:16:55.686Z,6.28
2023-01-18T13:19:29.223Z,6.19
2023-01-18T13:22:08.180Z,6.19
2023-01-18T13:24:52.613Z,6.35
2023-01-18T13:27:19.707Z,6.06
2023-01-18T13:29:46.605Z,6.19
2023-01-18T13:32:29.376Z,6.08
2023-01-18T13:35:18.551Z,6.23
2023-01-18T13:38:11.361Z,6.02
2023-01-18T13:40:42.906Z,5.89
2023-01-18T13:43:42.001Z,6.03
2023-01-18T13:46:08.613Z,5.98
2023-01-18T13:48:52.985Z,5.97
2023-01-18T13:51:39.499Z,6.00
2023-01-18T13:54:38.822Z,5.81
2023-01-18T13:57:05.621Z,5.83
2023-01-18T13:59:35.244Z,6.01
2023-01-18T14:02:19.144Z,5.75
2023-01-18T14:04:46.248Z,6.01
2023-01-18T14:07:21.532Z,5.86
2023-01-18T14:09:50.471Z,5.85
2023-01-18T14:12:47.309Z,5.84
2023-01-18T14:15:41.829Z,5.82
2023-01-18T14:18:23.925Z,5.56
2023-01-18T14:20:54.017Z,5.78
2023-01-18T14:23:27.535Z,5.81
2023-01-18T14:26:06.656Z,5.66
2023-01-18T14:28:42.602Z,5.87
2023-01-18T14:31:16.631Z,5.61
2023-01-18T14:33:43.227Z,5.58
2023-01-18T14:36:24.845Z,5.70
2023-01-18T14:39:13.888Z,5.81
2023-01-18T14:41:46.370Z,5.69
2023-01-18T14:44:27.005Z,5.67
2023-01-18T14:46:56.752Z,5.70
2023-01-18T14:49:31.029Z,5.81
2023-01-18T14:51:59.234Z,5.82
2023-01-18T14:54:26.192Z,5.95
2023-01-18T14:57:01.475Z,5.94
2023-01-18T14:59:31.043Z,6.14
2023-01-18T15:02:17.796Z,5.90
2023-01-18T15:04:45.540Z,6.03
2023-01-18T15:07:27.695Z,5.96
2023-01-18T15:09:54.471Z,5.93
2023-01-18T15:12:30.222Z,5.85
2023-01-18T15:15:06.575Z,5.99
2023-01-18T15:17:35.910Z,5.88
2023-01-18T15:20:11.922Z,5.85
2023-01-18T15:22:40.584Z,5.83
2023-01-18T15:25:19.007Z,5.89
2023-01-18T15:27:53.197Z,5.80
2023-01-18T15:30:23.535Z,5.97
2023-01-18T15:32:57.736Z,5.83
2023-01-18T15:38:00.326Z,5.59
2023-01-18T15:40:30.145Z,5.55
2023-01-18T15:43:06.355Z,5.70
2023-01-18T15:45:48.132Z,5.76
2023-01-18T15:48:22.521Z,5.68
2023-01-18T15:50:52.613Z,5.64
2023-01-18T15:53:29.520Z,5.49
2023-01-18T15:56:05.895Z,5.21
2023-01-18T15:58:55.743Z,5.38
2023-01-18T16:01:34.122Z,5.30
2023-01-18T16:04:20.441Z,5.19
2023-01-18T16:06:47.281Z,4.79
2023-01-18T16:09:15.838Z,5.01
2023-01-18T16:11:54.475Z,4.85
2023-01-18T16:14:29.316Z,4.69
2023-01-18T16:16:58.575Z,4.62
2023-01-18T16:19:34.923Z,4.67
2023-01-18T16:22:04.971Z,4.52
2023-01-18T16:24:39.071Z,4.27
2023-01-18T16:27:19.357Z,4.39
2023-01-18T16:29:50.338Z,4.24
2023-01-18T16:32:18.805Z,4.25
2023-01-18T16:34:45.656Z,4.11
2023-01-18T16:37:12.225Z,3.73
2023-01-18T16:39:40.184Z,3.90
2023-01-18T16:42:08.730Z,3.67
2023-01-18T16:44:36.193Z,3.64
2023-01-18T16:47:02.863Z,3.52
2023-01-18T16:49:29.820Z,3.59
2023-01-18T16:51:56.625Z,3.45
2023-01-18T16:54:23.468Z,3.48
2023-01-18T16:56:50.273Z,3.43
2023-01-18T16:59:19.571Z,3.38
2023-01-18T17:01:46.324Z,3.27
2023-01-18T17:04:13.457Z,3.10
2023-01-18T17:06:41.360Z,3.29
2023-01-18T17:09:22.422Z,3.06
2023-01-18T17:11:49.325Z,2.96
2023-01-18T17:14:17.017Z,2.88
2023-01-18T17:16:45.231Z,2.97
2023-01-18T17:19:13.379Z,2.59
2023-01-18T17:21:41.368Z,2.92
2023-01-18T17:24:08.980Z,2.65
2023-01-18T17:26:37.045Z,2.82
2023-01-18T17:29:05.110Z,2.81
2023-01-18T17:31:33.791Z,2.88
2023-01-18T17:34:02.278Z,2.69
2023-01-18T17:36:28.961Z,2.45
2023-01-18T17:38:56.847Z,2.48
2023-01-18T17:41:27.271Z,2.41
2023-01-18T17:43:55.024Z,2.57
2023-01-18T17:46:21.747Z,2.42
2023-01-18T17:48:50.574Z,2.32
2023-01-18T17:51:19.573Z,2.21
2023-01-18T17:53:46.833Z,2.20
2023-01-18T17:56:16.494Z,2.61
2023-01-18T17:58:48.197Z,2.59
2023-01-18T18:01:17.485Z,2.27
2023-01-18T18:03:49.761Z,2.31
2023-01-18T18:06:30.105Z,2.51
2023-01-18T18:08:57.345Z,2.09
2023-01-18T18:11:24.102Z,2.31
2023-01-18T18:13:50.668Z,2.19
2023-01-18T18:16:18.853Z,2.24
2023-01-18T18:18:46.211Z,2.36
2023-01-18T18:21:12.852Z,2.37
2023-01-18T18:23:39.641Z,2.15
2023-01-18T18:26:06.755Z,2.43
2023-01-18T18:28:34.271Z,2.46
2023-01-18T18:31:01.249Z,2.14
2023-01-18T18:33:29.309Z,2.49
2023-01-18T18:35:57.131Z,2.27
2023-01-18T18:38:24.616Z,2.21
2023-01-18T18:40:51.528Z,2.17
2023-01-18T18:43:18.455Z,2.28
2023-01-18T18:45:46.093Z,2.20
2023-01-18T18:48:13.266Z,2.33
2023-01-18T18:50:40.342Z,2.30
2023-01-18T18:53:07.085Z,2.41
2023-01-18T18:55:33.624Z,2.26
2023-01-18T18:58:00.242Z,2.41
2023-01-18T19:00:27.539Z,2.30
2023-01-18T19:03:05.356Z,2.54
2023-01-18T19:05:34.212Z,2.32
2023-01-18T19:08:01.053Z,2.42
2023-01-18T19:10:30.453Z,2.23
2023-01-18T19:12:58.171Z,1.88
2023-01-18T19:15:25.260Z,2.01
2023-01-18T19:17:52.924Z,2.23
2023-01-18T19:20:20.161Z,2.31
2023-01-18T19:22:48.239Z,2.11
2023-01-18T19:25:16.189Z,2.19
2023-01-18T19:27:43.369Z,2.32
2023-01-18T19:30:18.556Z,2.23
2023-01-18T19:32:46.952Z,2.26
2023-01-18T19:35:14.174Z,2.13
2023-01-18T19:37:40.836Z,2.12
2023-01-18T19:40:09.395Z,1.90
2023-01-18T19:42:36.207Z,1.88
2023-01-18T19:45:04.846Z,1.91
2023-01-18T19:47:32.159Z,1.70
2023-01-18T19:50:03.228Z,1.58
2023-01-18T19:52:31.204Z,1.56
2023-01-18T19:55:02.306Z,1.34
2023-01-18T19:57:29.718Z,1.43
2023-01-18T19:59:57.311Z,1.01
2023-01-18T20:02:26.841Z,1.19
2023-01-18T20:04:54.074Z,0.84
2023-01-18T20:07:21.142Z,0.93
2023-01-18T20:09:47.759Z,1.18
2023-01-18T20:12:14.330Z,1.00
2023-01-18T20:14:42.638Z,0.96
2023-01-18T20:17:11.810Z,0.92
2023-01-18T20:19:38.846Z,0.83
2023-01-18T20:22:05.724Z,0.69
2023-01-18T20:24:32.629Z,0.95
2023-01-18T20:27:14.893Z,0.50
2023-01-18T20:29:42.409Z,0.53
2023-01-18T20:32:16.114Z,0.65
2023-01-18T20:34:47.777Z,0.54
2023-01-18T20:37:16.190Z,0.73
2023-01-18T20:39:43.864Z,0.39
2023-01-18T20:42:10.581Z,0.28
2023-01-18T20:44:37.749Z,0.22
2023-01-18T20:47:04.807Z,0.20
2023-01-18T20:49:39.089Z,0.23
2023-01-18T20:52:09.281Z,0.25
2023-01-18T20:54:36.716Z,0.44
2023-01-18T20:57:07.198Z,0.23
2023-01-18T20:59:35.348Z,0.16
2023-01-18T21:02:03.286Z,0.24
2023-01-18T21:04:30.284Z,-0.03
2023-01-18T21:06:57.462Z,0.09
2023-01-18T21:09:25.625Z,0.06
2023-01-18T21:11:52.408Z,-0.07
2023-01-18T21:14:19.163Z,-0.23
2023-01-18T21:16:48.187Z,-0.21
2023-01-18T21:19:14.950Z,-0.34
2023-01-18T21:21:41.627Z,-0.08
2023-01-18T21:24:08.531Z,-0.08
2023-01-18T21:26:36.183Z,0.01
2023-01-18T21:29:03.115Z,-0.06
2023-01-18T21:31:30.267Z,-0.08
2023-01-18T21:33:57.060Z,-0.07
2023-01-18T21:36:23.895Z,0.02
2023-01-18T21:38:50.820Z,-0.24
2023-01-18T21:41:36.173Z,-0.02
2023-01-18T21:44:21.627Z,0.26
2023-01-18T21:46:53.278Z,0.26
2023-01-18T21:50:15.045Z,-0.36
2023-01-18T21:52:49.629Z,0.11
2023-01-18T21:55:17.369Z,0.06
2023-01-18T21:57:44.464Z,-0.21
2023-01-18T22:00:12.061Z,-0.03
2023-01-18T22:02:38.875Z,-0.02
2023-01-18T22:05:05.814Z,0.20
2023-01-18T22:07:35.299Z,0.19
2023-01-18T22:10:06.452Z,0.04
2023-01-18T22:12:35.547Z,0.23
2023-01-18T22:15:04.584Z,-0.01
2023-01-18T22:17:31.354Z,-0.07
2023-01-18T22:19:58.404Z,0.02
2023-01-18T22:22:25.412Z,-0.07
2023-01-18T22:24:52.320Z,-0.11
2023-01-18T22:27:19.062Z,0.02
2023-01-18T22:29:45.628Z,-0.02
2023-01-18T22:32:13.483Z,-0.09
2023-01-18T22:34:40.339Z,0.14
2023-01-18T22:37:06.873Z,-0.17
2023-01-18T22:39:33.500Z,-0.21
2023-01-18T22:42:00.741Z,-0.01
2023-01-18T22:44:27.292Z,-0.17
2023-01-18T22:46:53.946Z,-0.11
2023-01-18T22:49:20.727Z,-0.12
2023-01-18T22:51:48.472Z,-0.30
2023-01-18T22:54:16.016Z,0.04
2023-01-18T22:56:42.553Z,-0.10
2023-01-18T22:59:09.147Z,-0.35
2023-01-18T23:01:36.248Z,-0.09
2023-01-18T23:04:04.588Z,-0.11
2023-01-18T23:06:42.566Z,-0.17
2023-01-18T23:09:10.215Z,-0.13
2023-01-18T23:11:37.007Z,-0.35
2023-01-18T23:14:24.942Z,-0.07
2023-01-18T23:17:10.187Z,-0.33
2023-01-18T23:19:37.082Z,-0.31
2023-01-18T23:22:07.423Z,-0.36
2023-01-18T23:24:35.927Z,-0.21
2023-01-18T23:27:03.501Z,-0.31
2023-01-18T23:29:30.365Z,-0.32
2023-01-18T23:31:57.506Z,-0.21
2023-01-18T23:34:25.134Z,-0.50
2023-01-18T23:36:52.167Z,-0.48
2023-01-18T23:39:37.528Z,-0.32
2023-01-18T23:42:22.921Z,-0.47
2023-01-18T23:45:08.047Z,-0.40
2023-01-18T23:47:54.297Z,-0.56
2023-01-18T23:50:40.243Z,-0.38
2023-01-18T23:53:30.579Z,-0.40
2023-01-18T23:55:57.707Z,-0.43
2023-01-18T23:58:24.538Z,-0.53
